Time;durP1;ratioP1;P1;durP2;ratioP2;P2;SDS_P1;SDS_P2;PMS_P1;PMS_P2;Temp;Humidity;BMP_temperature;BMP_pressure;BME280_temperature;BME280_humidity;BME280_pressure;Samples;Min_cycle;Max_cycle;Signal;HPM_P1;HPM_P2
2022/02/24 00:02:22;;;;;;;7.53;2.72;;;;;;;;;;5137522;27;20126;-78
2022/02/24 00:04:49;;;;;;;6.45;2.55;;;;;;;;;;5136104;27;20042;-79
2022/02/24 00:07:16;;;;;;;6.07;1.90;;;;;;;;;;5137195;27;20035;-77
2022/02/24 00:09:43;;;;;;;4.72;2.33;;;;;;;;;;5137769;27;20039;-77
2022/02/24 00:12:10;;;;;;;4.50;1.65;;;;;;;;;;5136895;27;20047;-77
2022/02/24 00:14:38;;;;;;;7.65;1.95;;;;;;;;;;5132425;27;20127;-77
2022/02/24 00:17:07;;;;;;;4.15;1.58;;;;;;;;;;5116620;28;20090;-77
2022/02/24 00:19:33;;;;;;;6.95;2.00;;;;;;;;;;5115835;28;20130;-77
2022/02/24 00:22:00;;;;;;;6.28;2.60;;;;;;;;;;5116056;27;20067;-77
2022/02/24 00:24:27;;;;;;;5.78;1.95;;;;;;;;;;5116505;28;20131;-77
2022/02/24 00:26:53;;;;;;;8.88;2.03;;;;;;;;;;5116301;28;20122;-77
2022/02/24 00:29:20;;;;;;;5.10;1.98;;;;;;;;;;5114429;28;20141;-77
2022/02/24 00:31:48;;;;;;;5.05;2.05;;;;;;;;;;5115441;28;20086;-77
2022/02/24 00:34:15;;;;;;;6.63;2.60;;;;;;;;;;5116348;28;20126;-77
2022/02/24 00:36:42;;;;;;;5.35;1.77;;;;;;;;;;5116554;28;20116;-77
2022/02/24 00:39:08;;;;;;;4.38;2.50;;;;;;;;;;5116243;28;20126;-77
2022/02/24 00:41:36;;;;;;;3.83;2.38;;;;;;;;;;5116337;28;20131;-78
2022/02/24 00:44:02;;;;;;;3.28;1.50;;;;;;;;;;5115836;28;20043;-78
2022/02/24 00:46:29;;;;;;;5.20;1.92;;;;;;;;;;5115213;28;20075;-78
2022/02/24 00:48:56;;;;;;;3.83;2.05;;;;;;;;;;5116116;28;20108;-77
2022/02/24 00:51:23;;;;;;;4.05;2.00;;;;;;;;;;5116447;28;20075;-77
2022/02/24 00:53:50;;;;;;;4.40;1.90;;;;;;;;;;5115935;28;20036;-77
2022/02/24 00:56:16;;;;;;;6.50;1.95;;;;;;;;;;5116230;28;20126;-77
2022/02/24 00:58:43;;;;;;;5.97;2.05;;;;;;;;;;5116775;28;20071;-78
2022/02/24 01:01:09;;;;;;;5.88;1.70;;;;;;;;;;5116559;28;20090;-77
2022/02/24 01:03:36;;;;;;;5.28;2.08;;;;;;;;;;5115651;28;20074;-78
2022/02/24 01:06:04;;;;;;;2.78;1.90;;;;;;;;;;5115931;28;20122;-78
2022/02/24 01:08:30;;;;;;;5.22;1.80;;;;;;;;;;5115887;28;20086;-77
2022/02/24 01:10:57;;;;;;;4.55;2.33;;;;;;;;;;5115897;28;20122;-77
2022/02/24 01:13:23;;;;;;;4.38;1.58;;;;;;;;;;5116210;28;20036;-78
2022/02/24 01:15:50;;;;;;;4.30;1.80;;;;;;;;;;5116447;28;20456;-78
2022/02/24 01:18:16;;;;;;;3.65;1.55;;;;;;;;;;5119529;28;20465;-77
2022/02/24 01:20:43;;;;;;;3.05;1.48;;;;;;;;;;5119920;28;20127;-78
2022/02/24 01:23:11;;;;;;;4.68;1.48;;;;;;;;;;5119233;28;20510;-78
2022/02/24 01:25:38;;;;;;;5.53;2.60;;;;;;;;;;5119060;28;20536;-77
2022/02/24 01:28:05;;;;;;;3.38;1.92;;;;;;;;;;5118401;28;20135;-78
2022/02/24 01:30:32;;;;;;;6.75;1.80;;;;;;;;;;5120582;28;20122;-78
2022/02/24 01:32:58;;;;;;;6.03;1.90;;;;;;;;;;5120196;28;20126;-77
2022/02/24 01:35:25;;;;;;;5.90;1.67;;;;;;;;;;5120045;28;20071;-78
2022/02/24 01:37:51;;;;;;;7.38;2.22;;;;;;;;;;5120518;28;20130;-78
2022/02/24 01:40:20;;;;;;;3.22;1.95;;;;;;;;;;5120081;28;20126;-78
2022/02/24 01:42:47;;;;;;;5.10;2.10;;;;;;;;;;5119638;28;20067;-78
2022/02/24 01:45:14;;;;;;;7.38;2.20;;;;;;;;;;5120018;28;20424;-78
2022/02/24 01:47:42;;;;;;;5.75;2.15;;;;;;;;;;5119758;28;20086;-78
2022/02/24 01:50:11;;;;;;;4.55;1.80;;;;;;;;;;5119149;28;20123;-78
2022/02/24 01:52:39;;;;;;;5.32;2.45;;;;;;;;;;5119095;28;20122;-78
2022/02/24 01:55:07;;;;;;;3.67;1.77;;;;;;;;;;5120211;28;20067;-78
2022/02/24 01:57:35;;;;;;;7.25;2.53;;;;;;;;;;5119435;28;20073;-78
2022/02/24 02:00:02;;;;;;;8.23;2.90;;;;;;;;;;5119190;28;20167;-78
2022/02/24 02:02:29;;;;;;;8.65;2.50;;;;;;;;;;5119315;28;20054;-78
2022/02/24 02:04:55;;;;;;;4.50;2.22;;;;;;;;;;5119383;28;20107;-78
2022/02/24 02:07:22;;;;;;;5.57;1.80;;;;;;;;;;5118624;28;20131;-78
2022/02/24 02:09:49;;;;;;;5.68;2.03;;;;;;;;;;5119615;28;20126;-78
2022/02/24 02:12:19;;;;;;;5.57;1.88;;;;;;;;;;5118424;28;20547;-78
2022/02/24 02:14:47;;;;;;;5.88;1.95;;;;;;;;;;5119652;28;20039;-78
2022/02/24 02:17:14;;;;;;;6.80;2.38;;;;;;;;;;5119401;28;20108;-78
2022/02/24 02:19:40;;;;;;;4.22;2.03;;;;;;;;;;5119539;28;20071;-78
2022/02/24 02:22:08;;;;;;;3.28;1.52;;;;;;;;;;5119375;28;20071;-78
2022/02/24 02:24:35;;;;;;;7.57;3.08;;;;;;;;;;5119475;28;20078;-78
2022/02/24 02:27:02;;;;;;;3.75;1.80;;;;;;;;;;5118462;28;20082;-78
2022/02/24 02:29:28;;;;;;;3.42;1.70;;;;;;;;;;5117383;28;20044;-78
2022/02/24 02:31:55;;;;;;;3.20;1.70;;;;;;;;;;5118736;28;20425;-78
2022/02/24 02:34:21;;;;;;;5.47;2.00;;;;;;;;;;5118747;28;20089;-78
2022/02/24 02:36:49;;;;;;;3.33;1.77;;;;;;;;;;5117894;28;20543;-77
2022/02/24 02:39:17;;;;;;;4.93;2.72;;;;;;;;;;5118726;28;20107;-78
2022/02/24 02:41:45;;;;;;;3.63;1.92;;;;;;;;;;5118739;28;20078;-77
2022/02/24 02:44:14;;;;;;;3.17;1.45;;;;;;;;;;5119109;28;20130;-78
2022/02/24 02:46:40;;;;;;;5.72;1.83;;;;;;;;;;5118334;28;20131;-78
2022/02/24 02:49:07;;;;;;;6.20;1.70;;;;;;;;;;5117841;28;20476;-78
2022/02/24 02:51:33;;;;;;;7.25;1.95;;;;;;;;;;5118834;28;20139;-78
2022/02/24 02:54:00;;;;;;;5.15;1.83;;;;;;;;;;5119486;28;20126;-78
2022/02/24 02:56:28;;;;;;;4.72;2.20;;;;;;;;;;5118550;28;20079;-78
2022/02/24 02:58:54;;;;;;;4.68;2.17;;;;;;;;;;5119030;28;20123;-78
2022/02/24 03:01:21;;;;;;;4.10;1.60;;;;;;;;;;5119690;28;20071;-78
2022/02/24 03:03:47;;;;;;;4.35;1.98;;;;;;;;;;5118754;28;20127;-78
2022/02/24 03:06:14;;;;;;;3.33;2.00;;;;;;;;;;5118666;28;20416;-78
2022/02/24 03:08:40;;;;;;;6.18;1.83;;;;;;;;;;5118949;28;20127;-78
2022/02/24 03:11:07;;;;;;;4.18;1.48;;;;;;;;;;5118560;28;20071;-78
2022/02/24 03:13:36;;;;;;;6.07;2.47;;;;;;;;;;5119047;28;20050;-78
2022/02/24 03:16:02;;;;;;;6.53;2.38;;;;;;;;;;5118184;28;20458;-77
2022/02/24 03:18:29;;;;;;;6.82;1.92;;;;;;;;;;5117810;28;20131;-78
2022/02/24 03:20:55;;;;;;;2.92;1.70;;;;;;;;;;5119124;28;20156;-77
2022/02/24 03:23:22;;;;;;;5.18;2.00;;;;;;;;;;5116928;28;20126;-78
2022/02/24 03:25:48;;;;;;;8.52;2.40;;;;;;;;;;5117534;28;20123;-78
2022/02/24 03:28:15;;;;;;;4.95;1.80;;;;;;;;;;5115288;28;20135;-77
2022/02/24 03:30:43;;;;;;;3.92;2.10;;;;;;;;;;5116621;28;20051;-78
2022/02/24 03:33:09;;;;;;;4.13;2.47;;;;;;;;;;5117493;28;20122;-77
2022/02/24 03:35:43;;;;;;;5.93;1.63;;;;;;;;;;5117145;28;20126;-78
2022/02/24 03:38:09;;;;;;;6.20;2.15;;;;;;;;;;5117203;28;20035;-77
2022/02/24 03:40:36;;;;;;;4.65;2.00;;;;;;;;;;5117104;28;20127;-77
2022/02/24 03:43:03;;;;;;;4.57;2.08;;;;;;;;;;5117233;28;20039;-78
2022/02/24 03:45:29;;;;;;;5.55;2.22;;;;;;;;;;5116887;28;20097;-77
2022/02/24 03:47:57;;;;;;;6.22;2.63;;;;;;;;;;5116971;28;20075;-77
2022/02/24 03:50:24;;;;;;;2.92;1.75;;;;;;;;;;5116958;28;20067;-77
2022/02/24 03:52:51;;;;;;;2.47;1.60;;;;;;;;;;5117537;28;20051;-77
2022/02/24 03:55:17;;;;;;;6.97;2.17;;;;;;;;;;5117068;28;20132;-77
2022/02/24 03:57:44;;;;;;;3.92;1.42;;;;;;;;;;5116152;28;20519;-78
2022/02/24 04:00:11;;;;;;;4.80;1.95;;;;;;;;;;5116643;28;20126;-77
2022/02/24 04:02:38;;;;;;;4.05;1.65;;;;;;;;;;5116924;28;20063;-78
2022/02/24 04:05:06;;;;;;;3.40;1.73;;;;;;;;;;5116828;28;20446;-78
2022/02/24 04:07:33;;;;;;;3.90;1.80;;;;;;;;;;5117164;28;20075;-78
2022/02/24 04:10:00;;;;;;;3.42;1.50;;;;;;;;;;5117014;28;20118;-78
2022/02/24 04:12:26;;;;;;;4.45;1.75;;;;;;;;;;5116587;28;20070;-78
2022/02/24 04:14:55;;;;;;;6.40;1.80;;;;;;;;;;5115563;28;20603;-78
2022/02/24 04:17:21;;;;;;;6.07;2.25;;;;;;;;;;5117410;28;20067;-78
2022/02/24 04:19:48;;;;;;;6.68;1.88;;;;;;;;;;5116713;28;20143;-78
2022/02/24 04:22:16;;;;;;;3.30;1.95;;;;;;;;;;5116347;28;20104;-78
2022/02/24 04:24:43;;;;;;;4.90;2.38;;;;;;;;;;5117140;28;20130;-78
2022/02/24 04:27:09;;;;;;;3.53;1.80;;;;;;;;;;5116078;28;20127;-78
2022/02/24 04:29:36;;;;;;;6.45;2.42;;;;;;;;;;5115556;28;20134;-78
2022/02/24 04:32:02;;;;;;;6.45;2.75;;;;;;;;;;5115927;28;20123;-77
2022/02/24 04:34:29;;;;;;;6.60;2.55;;;;;;;;;;5115418;28;20476;-77
2022/02/24 04:36:55;;;;;;;5.10;2.35;;;;;;;;;;5115643;28;20118;-77
2022/02/24 04:39:23;;;;;;;3.22;1.80;;;;;;;;;;5115691;28;20071;-77
2022/02/24 04:41:50;;;;;;;5.50;2.05;;;;;;;;;;5116312;28;20074;-77
2022/02/24 04:44:16;;;;;;;5.88;2.15;;;;;;;;;;5115669;28;20111;-77
2022/02/24 04:46:43;;;;;;;4.78;2.92;;;;;;;;;;5116042;28;20122;-78
2022/02/24 04:49:09;;;;;;;6.43;2.28;;;;;;;;;;5116041;28;20126;-78
2022/02/24 04:51:36;;;;;;;2.53;1.60;;;;;;;;;;5118265;28;20092;-78
2022/02/24 04:54:02;;;;;;;5.05;2.33;;;;;;;;;;5119791;28;20044;-78
2022/02/24 04:56:30;;;;;;;4.32;1.95;;;;;;;;;;5119863;28;20436;-78
2022/02/24 04:58:57;;;;;;;5.05;2.50;;;;;;;;;;5119570;28;20074;-78
2022/02/24 05:01:23;;;;;;;5.07;2.50;;;;;;;;;;5119910;28;20127;-77
2022/02/24 05:03:50;;;;;;;5.90;2.28;;;;;;;;;;5119268;28;20444;-77
2022/02/24 05:06:16;;;;;;;4.20;2.10;;;;;;;;;;5120317;28;20146;-77
2022/02/24 05:08:43;;;;;;;10.80;2.50;;;;;;;;;;5120178;28;20131;-77
2022/02/24 05:11:09;;;;;;;5.32;2.58;;;;;;;;;;5120094;28;20122;-77
2022/02/24 05:13:37;;;;;;;9.18;2.90;;;;;;;;;;5120231;28;20071;-77
2022/02/24 05:16:04;;;;;;;4.70;2.13;;;;;;;;;;5120019;28;20131;-78
2022/02/24 05:18:31;;;;;;;4.57;2.17;;;;;;;;;;5118776;28;20536;-78
2022/02/24 05:20:57;;;;;;;4.05;1.88;;;;;;;;;;5120259;28;20097;-77
2022/02/24 05:23:24;;;;;;;3.20;1.85;;;;;;;;;;5119454;28;20082;-77
2022/02/24 05:25:50;;;;;;;4.97;2.05;;;;;;;;;;5120004;28;20127;-78
2022/02/24 05:28:17;;;;;;;5.40;1.80;;;;;;;;;;5117943;28;20138;-77
2022/02/24 05:30:45;;;;;;;6.93;2.33;;;;;;;;;;5119203;28;20083;-77
2022/02/24 05:33:11;;;;;;;2.85;1.60;;;;;;;;;;5119895;28;20067;-78
2022/02/24 05:35:38;;;;;;;5.07;2.00;;;;;;;;;;5119824;28;20050;-77
2022/02/24 05:38:04;;;;;;;6.90;2.25;;;;;;;;;;5119284;28;20134;-77
2022/02/24 05:40:31;;;;;;;3.47;1.77;;;;;;;;;;5119721;28;20124;-78
2022/02/24 05:42:58;;;;;;;4.93;1.83;;;;;;;;;;5119802;28;20071;-78
2022/02/24 05:45:25;;;;;;;4.63;2.08;;;;;;;;;;5119860;28;20043;-78
2022/02/24 05:47:52;;;;;;;5.03;2.08;;;;;;;;;;5118937;28;20054;-77
2022/02/24 05:50:19;;;;;;;3.80;1.85;;;;;;;;;;5118465;28;20475;-77
2022/02/24 05:52:46;;;;;;;3.90;2.05;;;;;;;;;;5118214;28;20480;-78
2022/02/24 05:55:12;;;;;;;6.93;1.92;;;;;;;;;;5118927;28;20119;-77
2022/02/24 05:57:42;;;;;;;6.20;2.28;;;;;;;;;;5119973;28;20081;-78
2022/02/24 06:00:10;;;;;;;5.50;2.05;;;;;;;;;;5119378;28;20075;-77
2022/02/24 06:02:36;;;;;;;3.60;1.92;;;;;;;;;;5118083;28;20535;-77
2022/02/24 06:05:05;;;;;;;4.40;2.03;;;;;;;;;;5118448;28;20082;-78
2022/02/24 06:07:32;;;;;;;6.80;2.33;;;;;;;;;;5118552;28;20075;-78
2022/02/24 06:09:58;;;;;;;4.75;2.35;;;;;;;;;;5119200;28;20125;-78
2022/02/24 06:12:25;;;;;;;4.85;2.05;;;;;;;;;;5118228;28;20127;-78
2022/02/24 06:14:51;;;;;;;3.80;1.90;;;;;;;;;;5119370;28;20078;-78
2022/02/24 06:17:18;;;;;;;7.00;2.13;;;;;;;;;;5118673;28;20126;-78
2022/02/24 06:19:45;;;;;;;4.57;2.30;;;;;;;;;;5119323;28;20043;-78
2022/02/24 06:22:13;;;;;;;5.00;2.50;;;;;;;;;;5118971;28;20047;-78
2022/02/24 06:24:40;;;;;;;8.45;2.35;;;;;;;;;;5119403;28;20147;-78
2022/02/24 06:27:06;;;;;;;5.82;2.42;;;;;;;;;;5121055;28;20127;-78
2022/02/24 06:29:33;;;;;;;4.85;1.85;;;;;;;;;;5120888;28;20443;-78
2022/02/24 06:31:59;;;;;;;4.97;2.25;;;;;;;;;;5122375;28;20133;-78
2022/02/24 06:34:26;;;;;;;6.03;2.88;;;;;;;;;;5123094;28;20094;-78
2022/02/24 06:36:52;;;;;;;7.05;2.25;;;;;;;;;;5121801;28;20071;-78
2022/02/24 06:39:20;;;;;;;5.55;2.53;;;;;;;;;;5121886;28;20071;-78
2022/02/24 06:41:47;;;;;;;11.30;2.33;;;;;;;;;;5121756;28;20067;-78
2022/02/24 06:44:14;;;;;;;4.53;1.85;;;;;;;;;;5121450;28;20119;-78
2022/02/24 06:46:40;;;;;;;7.13;2.10;;;;;;;;;;5119577;28;20048;-78
2022/02/24 06:49:07;;;;;;;5.30;2.30;;;;;;;;;;5121752;28;20061;-78
2022/02/24 06:51:33;;;;;;;5.05;2.25;;;;;;;;;;5121263;28;20210;-78
2022/02/24 06:54:00;;;;;;;3.55;2.10;;;;;;;;;;5121813;28;20074;-78
2022/02/24 06:56:28;;;;;;;4.50;2.20;;;;;;;;;;5121035;28;20138;-78
2022/02/24 06:58:54;;;;;;;5.65;2.30;;;;;;;;;;5121212;28;20070;-78
2022/02/24 07:01:21;;;;;;;4.72;2.28;;;;;;;;;;5120764;28;20498;-78
2022/02/24 07:03:47;;;;;;;5.20;2.42;;;;;;;;;;5121113;28;20075;-78
2022/02/24 07:06:14;;;;;;;6.68;2.63;;;;;;;;;;5121197;28;20423;-78
2022/02/24 07:08:41;;;;;;;3.78;1.80;;;;;;;;;;5121242;28;20071;-77
2022/02/24 07:11:07;;;;;;;4.10;1.73;;;;;;;;;;5121135;28;20128;-78
2022/02/24 07:13:38;;;;;;;5.35;2.17;;;;;;;;;;5119566;28;20514;-78
2022/02/24 07:16:04;;;;;;;6.40;2.70;;;;;;;;;;5120770;28;20035;-78
2022/02/24 07:18:31;;;;;;;6.75;2.28;;;;;;;;;;5121015;28;20071;-78
2022/02/24 07:20:57;;;;;;;6.05;2.15;;;;;;;;;;5120053;28;20074;-78
2022/02/24 07:23:24;;;;;;;4.68;2.50;;;;;;;;;;5121502;28;20075;-78
2022/02/24 07:25:51;;;;;;;3.53;1.27;;;;;;;;;;5120717;28;20044;-78
2022/02/24 07:28:18;;;;;;;8.35;2.17;;;;;;;;;;5117565;28;20488;-78
2022/02/24 07:30:46;;;;;;;4.97;2.10;;;;;;;;;;5120748;28;20122;-78
2022/02/24 07:33:12;;;;;;;6.75;2.95;;;;;;;;;;5119867;28;20039;-78
2022/02/24 07:35:39;;;;;;;4.43;1.70;;;;;;;;;;5118999;28;20063;-78
2022/02/24 07:38:05;;;;;;;4.78;2.50;;;;;;;;;;5118748;28;20130;-77
2022/02/24 07:40:32;;;;;;;4.53;2.05;;;;;;;;;;5119062;28;20046;-77
2022/02/24 07:42:58;;;;;;;3.90;1.83;;;;;;;;;;5117646;28;20558;-77
2022/02/24 07:45:25;;;;;;;6.28;1.90;;;;;;;;;;5118635;28;20134;-77
2022/02/24 07:47:54;;;;;;;5.50;2.10;;;;;;;;;;5116509;28;20096;-77
2022/02/24 07:50:20;;;;;;;5.53;2.50;;;;;;;;;;5118453;28;20081;-77
2022/02/24 07:52:47;;;;;;;8.63;2.90;;;;;;;;;;5117971;28;20071;-77
2022/02/24 07:55:14;;;;;;;6.93;3.20;;;;;;;;;;5117518;28;20527;-77
2022/02/24 07:57:42;;;;;;;8.25;3.15;;;;;;;;;;5118498;28;20067;-77
2022/02/24 08:00:13;;;;;;;8.50;3.03;;;;;;;;;;5117625;28;20514;-77
2022/02/24 08:02:39;;;;;;;8.50;3.35;;;;;;;;;;5119169;28;20043;-78
2022/02/24 08:05:08;;;;;;;7.00;3.70;;;;;;;;;;5120295;28;20138;-78
2022/02/24 08:07:34;;;;;;;5.60;2.30;;;;;;;;;;5120367;28;20071;-78
2022/02/24 08:10:01;;;;;;;4.63;2.60;;;;;;;;;;5120384;28;20066;-78
2022/02/24 08:12:40;;;;;;;5.70;2.70;;;;;;;;;;5121146;28;20081;-78
2022/02/24 08:15:07;;;;;;;3.63;1.90;;;;;;;;;;5120447;28;20040;-78
2022/02/24 08:17:34;;;;;;;5.53;1.85;;;;;;;;;;5120731;28;20044;-78
2022/02/24 08:20:01;;;;;;;4.35;2.10;;;;;;;;;;5120220;28;20079;-78
2022/02/24 08:22:28;;;;;;;7.70;2.65;;;;;;;;;;5119947;28;20066;-77
2022/02/24 08:25:02;;;;;;;6.88;3.25;;;;;;;;;;5120009;28;20071;-78
2022/02/24 08:27:28;;;;;;;14.30;3.63;;;;;;;;;;5119782;28;20082;-78
2022/02/24 08:29:56;;;;;;;6.05;3.15;;;;;;;;;;5118276;28;20043;-77
2022/02/24 08:32:23;;;;;;;7.20;3.63;;;;;;;;;;5118065;28;20484;-77
2022/02/24 08:34:50;;;;;;;8.88;4.47;;;;;;;;;;5118400;28;20050;-78
2022/02/24 08:37:16;;;;;;;12.32;5.60;;;;;;;;;;5119166;28;20074;-78
2022/02/24 08:39:44;;;;;;;11.07;6.13;;;;;;;;;;5118142;28;20461;-78
2022/02/24 08:42:11;;;;;;;13.75;7.28;;;;;;;;;;5119571;28;20090;-77
2022/02/24 08:44:39;;;;;;;15.00;7.32;;;;;;;;;;5117990;28;20086;-77
2022/02/24 08:47:06;;;;;;;11.73;4.75;;;;;;;;;;5117927;28;20047;-78
2022/02/24 08:49:32;;;;;;;7.43;3.88;;;;;;;;;;5118176;28;20071;-78
2022/02/24 08:51:59;;;;;;;8.10;3.95;;;;;;;;;;5117205;28;20123;-78
2022/02/24 08:54:25;;;;;;;8.75;3.35;;;;;;;;;;5118172;28;20078;-78
2022/02/24 08:56:54;;;;;;;5.97;2.60;;;;;;;;;;5116307;28;20095;-78
2022/02/24 08:59:20;;;;;;;5.45;2.75;;;;;;;;;;5118177;28;20078;-78
2022/02/24 09:01:47;;;;;;;4.43;2.53;;;;;;;;;;5117568;28;20122;-78
2022/02/24 09:04:15;;;;;;;4.88;2.75;;;;;;;;;;5117848;28;20419;-78
2022/02/24 09:06:42;;;;;;;4.43;2.17;;;;;;;;;;5117567;28;20126;-78
2022/02/24 09:09:08;;;;;;;4.40;2.38;;;;;;;;;;5116855;28;20522;-78
2022/02/24 09:11:35;;;;;;;9.43;5.80;;;;;;;;;;5117744;28;20075;-78
2022/02/24 09:14:03;;;;;;;5.88;3.80;;;;;;;;;;5118445;28;20139;-78
2022/02/24 09:16:30;;;;;;;6.38;3.35;;;;;;;;;;5118041;28;20127;-78
2022/02/24 09:18:56;;;;;;;4.53;2.78;;;;;;;;;;5118259;28;20078;-78
2022/02/24 09:21:23;;;;;;;5.53;2.92;;;;;;;;;;5117339;28;20126;-78
2022/02/24 09:23:49;;;;;;;5.30;2.28;;;;;;;;;;5117549;28;20063;-78
2022/02/24 09:26:16;;;;;;;5.90;3.10;;;;;;;;;;5118040;28;20090;-78
2022/02/24 09:28:43;;;;;;;5.32;2.40;;;;;;;;;;5115781;28;20083;-78
2022/02/24 09:31:11;;;;;;;6.18;2.75;;;;;;;;;;5118155;28;20067;-78
2022/02/24 09:33:38;;;;;;;5.65;3.03;;;;;;;;;;5117395;28;20119;-78
2022/02/24 09:36:05;;;;;;;6.68;3.28;;;;;;;;;;5118119;28;20039;-78
2022/02/24 09:38:31;;;;;;;8.80;3.53;;;;;;;;;;5121919;28;20071;-78
2022/02/24 09:40:59;;;;;;;7.82;3.28;;;;;;;;;;5121024;28;20451;-78
2022/02/24 09:43:27;;;;;;;8.02;3.33;;;;;;;;;;5121914;28;20039;-78
2022/02/24 09:46:01;;;;;;;6.03;3.55;;;;;;;;;;5123424;28;20479;-78
2022/02/24 09:48:31;;;;;;;12.32;4.97;;;;;;;;;;5125852;28;20039;-78
2022/02/24 09:51:00;;;;;;;7.70;3.83;;;;;;;;;;5121311;28;20039;-78
2022/02/24 09:53:30;;;;;;;9.07;4.03;;;;;;;;;;5120556;28;20055;-78
2022/02/24 09:55:57;;;;;;;5.38;3.30;;;;;;;;;;5122021;28;20414;-78
2022/02/24 09:58:24;;;;;;;8.32;3.83;;;;;;;;;;5121758;28;20063;-78
2022/02/24 10:00:51;;;;;;;6.63;3.08;;;;;;;;;;5121964;28;20093;-78
2022/02/24 10:03:25;;;;;;;6.40;3.33;;;;;;;;;;5121844;28;20074;-78
2022/02/24 10:05:53;;;;;;;8.18;4.32;;;;;;;;;;5121353;28;20499;-78
2022/02/24 10:08:26;;;;;;;4.78;2.85;;;;;;;;;;5121869;28;20119;-78
2022/02/24 10:10:53;;;;;;;6.70;4.20;;;;;;;;;;5121702;28;20050;-78
2022/02/24 10:13:20;;;;;;;7.22;3.30;;;;;;;;;;5121249;28;20036;-78
2022/02/24 10:15:53;;;;;;;4.00;2.35;;;;;;;;;;5122703;28;20040;-78
2022/02/24 10:18:24;;;;;;;4.38;2.63;;;;;;;;;;5120865;28;20067;-78
2022/02/24 10:20:55;;;;;;;5.70;2.72;;;;;;;;;;5121593;28;20035;-78
2022/02/24 10:23:31;;;;;;;6.70;3.33;;;;;;;;;;5121228;28;20379;-78
2022/02/24 10:26:01;;;;;;;3.28;1.65;;;;;;;;;;5121409;28;20092;-78
2022/02/24 10:28:34;;;;;;;4.75;2.88;;;;;;;;;;5120934;28;20070;-78
2022/02/24 10:31:05;;;;;;;3.75;2.13;;;;;;;;;;5081021;28;20091;-78
2022/02/24 10:33:32;;;;;;;4.38;1.90;;;;;;;;;;5080269;28;20071;-78
2022/02/24 10:36:15;;;;;;;4.47;2.20;;;;;;;;;;5080179;28;20124;-78
2022/02/24 10:38:42;;;;;;;5.18;2.15;;;;;;;;;;5080386;28;20090;-78
2022/02/24 10:41:08;;;;;;;3.85;1.63;;;;;;;;;;5079876;28;20071;-78
2022/02/24 10:43:36;;;;;;;6.80;2.53;;;;;;;;;;5080017;28;20119;-78
2022/02/24 10:46:06;;;;;;;6.30;2.03;;;;;;;;;;5080028;28;20055;-79
2022/02/24 10:48:34;;;;;;;4.10;1.90;;;;;;;;;;5079298;28;20040;-78
2022/02/24 10:51:05;;;;;;;6.18;2.47;;;;;;;;;;5080138;28;20040;-78
2022/02/24 10:53:34;;;;;;;2.67;1.67;;;;;;;;;;5079296;28;20049;-78
2022/02/24 10:56:06;;;;;;;3.75;1.50;;;;;;;;;;5078939;28;20459;-78
2022/02/24 10:58:34;;;;;;;5.25;1.90;;;;;;;;;;5079669;28;20079;-78
2022/02/24 11:01:07;;;;;;;3.65;1.80;;;;;;;;;;5079053;28;20075;-78
2022/02/24 11:03:34;;;;;;;3.47;1.50;;;;;;;;;;5079539;28;20099;-78
2022/02/24 11:06:03;;;;;;;3.05;1.33;;;;;;;;;;5080026;28;20087;-78
2022/02/24 11:08:31;;;;;;;2.58;1.55;;;;;;;;;;5079984;28;20067;-78
2022/02/24 11:10:59;;;;;;;3.00;1.00;;;;;;;;;;5080139;28;20076;-78
2022/02/24 11:13:26;;;;;;;3.28;1.25;;;;;;;;;;5079226;28;20499;-78
2022/02/24 11:16:01;;;;;;;2.73;1.40;;;;;;;;;;5079859;28;20036;-78
2022/02/24 11:18:28;;;;;;;3.22;1.50;;;;;;;;;;5078971;28;20079;-78
2022/02/24 11:20:56;;;;;;;2.45;1.20;;;;;;;;;;5079556;28;20063;-78
2022/02/24 11:23:24;;;;;;;2.85;0.95;;;;;;;;;;5079312;28;20076;-78
2022/02/24 11:25:57;;;;;;;3.83;1.05;;;;;;;;;;5079952;28;20067;-78
2022/02/24 11:28:24;;;;;;;3.53;1.27;;;;;;;;;;5078289;28;20131;-78
2022/02/24 11:31:02;;;;;;;4.93;1.17;;;;;;;;;;5116872;28;20471;-78
2022/02/24 11:33:30;;;;;;;2.42;1.10;;;;;;;;;;5121457;28;20526;-79
2022/02/24 11:36:10;;;;;;;2.30;1.10;;;;;;;;;;5124980;28;20059;-79
2022/02/24 11:38:40;;;;;;;2.08;0.68;;;;;;;;;;5125353;28;20391;-79
2022/02/24 11:41:08;;;;;;;1.45;0.70;;;;;;;;;;5126046;28;20117;-78
2022/02/24 11:43:35;;;;;;;3.42;1.08;;;;;;;;;;5124992;28;20067;-78
2022/02/24 11:46:05;;;;;;;2.28;0.70;;;;;;;;;;5123840;28;20459;-79
2022/02/24 11:48:34;;;;;;;2.30;0.70;;;;;;;;;;5131347;27;20046;-79
2022/02/24 11:51:01;;;;;;;1.40;0.80;;;;;;;;;;5134851;27;20069;-79
2022/02/24 11:53:33;;;;;;;3.47;0.95;;;;;;;;;;5143674;27;20137;-78
2022/02/24 11:56:02;;;;;;;2.03;1.02;;;;;;;;;;5142913;27;20075;-79
2022/02/24 11:58:42;;;;;;;2.78;0.90;;;;;;;;;;5135901;27;20074;-78
2022/02/24 12:01:15;;;;;;;3.55;1.10;;;;;;;;;;5136789;27;20061;-79
2022/02/24 12:03:55;;;;;;;2.38;0.90;;;;;;;;;;5138016;27;20462;-78
2022/02/24 12:06:23;;;;;;;2.35;0.90;;;;;;;;;;5136364;27;20083;-78
2022/02/24 12:09:03;;;;;;;2.85;1.05;;;;;;;;;;5120654;28;20082;-78
2022/02/24 12:11:32;;;;;;;2.22;1.00;;;;;;;;;;5127009;27;20082;-78
2022/02/24 12:13:59;;;;;;;1.48;0.80;;;;;;;;;;5123785;27;20067;-78
2022/02/24 12:16:26;;;;;;;2.13;1.00;;;;;;;;;;5122767;27;20494;-78
2022/02/24 12:18:54;;;;;;;3.80;1.13;;;;;;;;;;5123544;27;20075;-78
2022/02/24 12:21:27;;;;;;;1.73;1.00;;;;;;;;;;5115882;28;20092;-78
2022/02/24 12:23:55;;;;;;;2.35;1.10;;;;;;;;;;5117320;28;20078;-78
2022/02/24 12:26:39;;;;;;;2.80;1.10;;;;;;;;;;5116847;28;20040;-78
2022/02/24 12:29:19;;;;;;;5.25;1.10;;;;;;;;;;5117455;28;20130;-78
2022/02/24 12:31:45;;;;;;;2.95;0.93;;;;;;;;;;5115963;27;20126;-78
2022/02/24 12:34:12;;;;;;;2.42;0.90;;;;;;;;;;5116091;28;20060;-78
2022/02/24 12:36:39;;;;;;;5.70;1.15;;;;;;;;;;5116405;28;20122;-78
2022/02/24 12:39:05;;;;;;;2.13;0.80;;;;;;;;;;5117191;27;20071;-78
2022/02/24 12:41:32;;;;;;;2.05;0.68;;;;;;;;;;5115477;28;20119;-78
2022/02/24 12:44:00;;;;;;;3.10;0.90;;;;;;;;;;5136308;27;20506;-79
2022/02/24 12:46:27;;;;;;;2.33;0.75;;;;;;;;;;5133641;27;20076;-78
2022/02/24 12:48:56;;;;;;;2.95;1.10;;;;;;;;;;5125304;28;20070;-78
2022/02/24 12:51:24;;;;;;;2.83;0.70;;;;;;;;;;5124828;28;20094;-81
2022/02/24 12:53:50;;;;;;;1.52;0.88;;;;;;;;;;5116164;28;20039;-78
2022/02/24 12:56:17;;;;;;;1.75;0.68;;;;;;;;;;5136952;28;20494;-78
2022/02/24 12:58:45;;;;;;;1.80;1.00;;;;;;;;;;5130529;28;20391;-78
2022/02/24 13:01:14;;;;;;;3.03;1.08;;;;;;;;;;5116716;28;20059;-78
2022/02/24 13:03:41;;;;;;;4.00;1.13;;;;;;;;;;5125378;28;20082;-78
2022/02/24 13:06:07;;;;;;;2.60;0.90;;;;;;;;;;5136907;28;20459;-78
2022/02/24 13:11:19;;;;;;;2.65;1.02;;;;;;;;;;5124709;28;20050;-78
2022/02/24 13:13:46;;;;;;;2.90;1.15;;;;;;;;;;5124260;28;20059;-78
2022/02/24 13:16:16;;;;;;;4.95;1.83;;;;;;;;;;5135148;27;20062;-78
2022/02/24 13:18:44;;;;;;;2.63;1.25;;;;;;;;;;5137579;27;20059;-78
2022/02/24 13:21:12;;;;;;;1.88;0.80;;;;;;;;;;5134284;27;20435;-78
2022/02/24 13:23:38;;;;;;;1.92;0.80;;;;;;;;;;5122183;27;20122;-78
2022/02/24 13:26:06;;;;;;;3.80;0.82;;;;;;;;;;5141750;27;20074;-78
2022/02/24 13:28:34;;;;;;;4.13;1.50;;;;;;;;;;5132760;27;20097;-78
2022/02/24 13:31:03;;;;;;;4.18;0.98;;;;;;;;;;5136913;27;20039;-78
2022/02/24 13:33:35;;;;;;;2.58;1.08;;;;;;;;;;5130812;27;20058;-80
2022/02/24 13:36:02;;;;;;;2.42;0.90;;;;;;;;;;5120807;28;20039;-78
2022/02/24 13:38:35;;;;;;;1.85;1.05;;;;;;;;;;5126296;27;20098;-78
2022/02/24 13:41:02;;;;;;;3.30;1.05;;;;;;;;;;5121301;28;20046;-78
2022/02/24 13:43:28;;;;;;;2.53;0.90;;;;;;;;;;5122319;27;20043;-79
2022/02/24 13:45:55;;;;;;;2.70;0.60;;;;;;;;;;5130810;27;20035;-79
2022/02/24 13:48:25;;;;;;;3.47;1.00;;;;;;;;;;5142066;27;20129;-78
2022/02/24 13:50:56;;;;;;;2.72;0.90;;;;;;;;;;5143087;27;20092;-78
2022/02/24 13:53:24;;;;;;;3.17;0.90;;;;;;;;;;5143641;27;20039;-78
2022/02/24 13:55:55;;;;;;;2.97;1.15;;;;;;;;;;5142055;27;20121;-78
2022/02/24 13:58:26;;;;;;;1.35;0.65;;;;;;;;;;5143009;27;20407;-78
2022/02/24 14:00:56;;;;;;;6.50;1.27;;;;;;;;;;5142584;27;20083;-78
2022/02/24 14:03:31;;;;;;;1.27;0.73;;;;;;;;;;5142582;27;20071;-78
2022/02/24 14:06:09;;;;;;;2.63;0.88;;;;;;;;;;5140612;27;20491;-78
2022/02/24 14:08:36;;;;;;;4.28;0.80;;;;;;;;;;5121855;27;20058;-78
2022/02/24 14:11:10;;;;;;;3.80;1.20;;;;;;;;;;5120718;27;20066;-78
2022/02/24 14:13:39;;;;;;;4.30;1.35;;;;;;;;;;5118968;28;20078;-78
2022/02/24 14:16:12;;;;;;;3.03;1.17;;;;;;;;;;5121157;28;20082;-78
2022/02/24 14:18:39;;;;;;;10.77;2.17;;;;;;;;;;5119976;28;20104;-77
2022/02/24 14:21:07;;;;;;;4.88;0.93;;;;;;;;;;5119923;28;20040;-77
2022/02/24 14:23:35;;;;;;;3.08;1.15;;;;;;;;;;5131631;27;20111;-77
2022/02/24 14:26:01;;;;;;;4.60;1.13;;;;;;;;;;5139803;27;20041;-78
2022/02/24 14:28:28;;;;;;;4.95;1.67;;;;;;;;;;5139824;27;20134;-78
2022/02/24 14:30:55;;;;;;;2.90;0.93;;;;;;;;;;5138535;27;20079;-78
2022/02/24 14:33:22;;;;;;;2.40;1.02;;;;;;;;;;5140072;27;20079;-77
2022/02/24 14:35:49;;;;;;;5.45;1.40;;;;;;;;;;5140072;27;20530;-78
2022/02/24 14:38:17;;;;;;;3.72;1.10;;;;;;;;;;5131364;27;20475;-78
2022/02/24 14:40:46;;;;;;;2.58;1.00;;;;;;;;;;5120236;27;20039;-78
2022/02/24 14:43:13;;;;;;;2.08;0.90;;;;;;;;;;5118587;27;20431;-77
2022/02/24 14:45:40;;;;;;;3.40;1.33;;;;;;;;;;5119083;28;20087;-78
2022/02/24 14:48:07;;;;;;;3.10;1.20;;;;;;;;;;5124839;27;20093;-78
2022/02/24 14:50:34;;;;;;;2.55;1.15;;;;;;;;;;5132196;27;20083;-78